sensor_id;sensor_type;location;lat;lon;timestamp;P1;durP1;ratioP1;P2;durP2;ratioP2
73296;SDS011;61524;50.938;11.396;2023-05-10T00:01:24;5.50;;;2.47;;
73296;SDS011;61524;50.938;11.396;2023-05-10T00:03:49;4.97;;;3.15;;
73296;SDS011;61524;50.938;11.396;2023-05-10T00:06:15;4.65;;;2.85;;
73296;SDS011;61524;50.938;11.396;2023-05-10T00:08:40;5.15;;;2.90;;
73296;SDS011;61524;50.938;11.396;2023-05-10T00:11:06;3.30;;;2.13;;
73296;SDS011;61524;50.938;11.396;2023-05-10T00:13:31;5.65;;;2.67;;
73296;SDS011;61524;50.938;11.396;2023-05-10T00:15:57;7.25;;;2.72;;
73296;SDS011;61524;50.938;11.396;2023-05-10T00:18:22;4.35;;;2.70;;
73296;SDS011;61524;50.938;11.396;2023-05-10T00:20:48;5.13;;;2.30;;
73296;SDS011;61524;50.938;11.396;2023-05-10T00:23:14;5.13;;;2.40;;
73296;SDS011;61524;50.938;11.396;2023-05-10T00:25:39;4.47;;;2.88;;
73296;SDS011;61524;50.938;11.396;2023-05-10T00:28:05;5.30;;;2.85;;
73296;SDS011;61524;50.938;11.396;2023-05-10T00:30:30;4.40;;;2.45;;
73296;SDS011;61524;50.938;11.396;2023-05-10T00:32:56;5.38;;;2.65;;
73296;SDS011;61524;50.938;11.396;2023-05-10T00:35:21;4.35;;;2.60;;
73296;SDS011;61524;50.938;11.396;2023-05-10T00:37:47;6.38;;;3.13;;
73296;SDS011;61524;50.938;11.396;2023-05-10T00:40:12;4.22;;;2.42;;
73296;SDS011;61524;50.938;11.396;2023-05-10T00:42:38;4.82;;;2.60;;
73296;SDS011;61524;50.938;11.396;2023-05-10T00:45:04;9.63;;;2.72;;
73296;SDS011;61524;50.938;11.396;2023-05-10T00:47:30;5.03;;;2.90;;
73296;SDS011;61524;50.938;11.396;2023-05-10T00:49:56;5.45;;;2.70;;
73296;SDS011;61524;50.938;11.396;2023-05-10T00:52:22;6.05;;;2.85;;
73296;SDS011;61524;50.938;11.396;2023-05-10T00:54:49;6.20;;;2.42;;
73296;SDS011;61524;50.938;11.396;2023-05-10T00:57:16;6.63;;;2.58;;
73296;SDS011;61524;50.938;11.396;2023-05-10T00:59:42;6.03;;;3.15;;
73296;SDS011;61524;50.938;11.396;2023-05-10T01:02:07;3.85;;;2.50;;
73296;SDS011;61524;50.938;11.396;2023-05-10T01:04:33;5.40;;;2.60;;
73296;SDS011;61524;50.938;11.396;2023-05-10T01:07:00;4.88;;;2.97;;
73296;SDS011;61524;50.938;11.396;2023-05-10T01:09:26;4.57;;;2.55;;
73296;SDS011;61524;50.938;11.396;2023-05-10T01:11:52;3.95;;;2.58;;
73296;SDS011;61524;50.938;11.396;2023-05-10T01:14:19;4.70;;;2.53;;
73296;SDS011;61524;50.938;11.396;2023-05-10T01:16:45;4.45;;;2.60;;
73296;SDS011;61524;50.938;11.396;2023-05-10T01:19:23;6.50;;;2.95;;
73296;SDS011;61524;50.938;11.396;2023-05-10T01:30:35;4.80;;;2.42;;
73296;SDS011;61524;50.938;11.396;2023-05-10T01:33:18;4.72;;;2.38;;
73296;SDS011;61524;50.938;11.396;2023-05-10T01:35:52;4.80;;;2.42;;
73296;SDS011;61524;50.938;11.396;2023-05-10T01:38:38;5.75;;;3.10;;
73296;SDS011;61524;50.938;11.396;2023-05-10T01:41:24;5.10;;;3.05;;
73296;SDS011;61524;50.938;11.396;2023-05-10T01:44:02;4.55;;;2.78;;
73296;SDS011;61524;50.938;11.396;2023-05-10T01:46:53;4.90;;;2.72;;
73296;SDS011;61524;50.938;11.396;2023-05-10T01:49:26;5.97;;;2.50;;
73296;SDS011;61524;50.938;11.396;2023-05-10T01:51:58;6.88;;;3.42;;
73296;SDS011;61524;50.938;11.396;2023-05-10T01:54:29;6.03;;;2.75;;
73296;SDS011;61524;50.938;11.396;2023-05-10T01:57:05;4.57;;;2.90;;
73296;SDS011;61524;50.938;11.396;2023-05-10T01:59:35;5.20;;;2.40;;
73296;SDS011;61524;50.938;11.396;2023-05-10T02:02:06;6.15;;;2.80;;
73296;SDS011;61524;50.938;11.396;2023-05-10T02:04:36;4.60;;;2.53;;
73296;SDS011;61524;50.938;11.396;2023-05-10T02:07:03;6.78;;;3.25;;
73296;SDS011;61524;50.938;11.396;2023-05-10T02:09:30;5.40;;;3.45;;
73296;SDS011;61524;50.938;11.396;2023-05-10T02:11:58;4.22;;;2.50;;
73296;SDS011;61524;50.938;11.396;2023-05-10T02:14:25;5.15;;;3.05;;
73296;SDS011;61524;50.938;11.396;2023-05-10T02:16:52;4.63;;;2.55;;
73296;SDS011;61524;50.938;11.396;2023-05-10T02:19:20;4.25;;;2.53;;
73296;SDS011;61524;50.938;11.396;2023-05-10T02:21:47;5.00;;;2.70;;
73296;SDS011;61524;50.938;11.396;2023-05-10T02:24:14;4.25;;;2.42;;
73296;SDS011;61524;50.938;11.396;2023-05-10T02:26:41;5.82;;;2.78;;
73296;SDS011;61524;50.938;11.396;2023-05-10T02:29:08;5.47;;;2.65;;
73296;SDS011;61524;50.938;11.396;2023-05-10T02:31:37;4.57;;;2.72;;
73296;SDS011;61524;50.938;11.396;2023-05-10T02:34:04;4.78;;;2.63;;
73296;SDS011;61524;50.938;11.396;2023-05-10T02:36:31;4.03;;;2.58;;
73296;SDS011;61524;50.938;11.396;2023-05-10T02:38:58;6.78;;;2.88;;
73296;SDS011;61524;50.938;11.396;2023-05-10T02:41:26;5.20;;;2.80;;
73296;SDS011;61524;50.938;11.396;2023-05-10T02:43:54;5.57;;;2.85;;
73296;SDS011;61524;50.938;11.396;2023-05-10T02:46:24;7.13;;;3.05;;
73296;SDS011;61524;50.938;11.396;2023-05-10T02:48:49;6.45;;;2.80;;
73296;SDS011;61524;50.938;11.396;2023-05-10T02:51:15;4.47;;;2.50;;
73296;SDS011;61524;50.938;11.396;2023-05-10T02:53:43;4.20;;;2.58;;
73296;SDS011;61524;50.938;11.396;2023-05-10T02:56:29;5.72;;;2.90;;
73296;SDS011;61524;50.938;11.396;2023-05-10T02:58:58;4.40;;;2.80;;
73296;SDS011;61524;50.938;11.396;2023-05-10T03:01:23;4.70;;;2.67;;
73296;SDS011;61524;50.938;11.396;2023-05-10T03:03:49;4.68;;;2.83;;
73296;SDS011;61524;50.938;11.396;2023-05-10T03:06:14;5.43;;;2.95;;
73296;SDS011;61524;50.938;11.396;2023-05-10T03:08:41;9.75;;;2.83;;
73296;SDS011;61524;50.938;11.396;2023-05-10T03:11:32;5.25;;;2.90;;
73296;SDS011;61524;50.938;11.396;2023-05-10T03:16:42;6.22;;;3.45;;
73296;SDS011;61524;50.938;11.396;2023-05-10T03:21:55;4.65;;;2.97;;
73296;SDS011;61524;50.938;11.396;2023-05-10T03:24:25;4.70;;;2.70;;
73296;SDS011;61524;50.938;11.396;2023-05-10T03:26:53;5.60;;;3.47;;
73296;SDS011;61524;50.938;11.396;2023-05-10T03:29:23;5.93;;;2.95;;
73296;SDS011;61524;50.938;11.396;2023-05-10T03:31:51;5.05;;;2.70;;
73296;SDS011;61524;50.938;11.396;2023-05-10T03:34:16;5.03;;;2.85;;
73296;SDS011;61524;50.938;11.396;2023-05-10T03:36:48;4.60;;;2.65;;
73296;SDS011;61524;50.938;11.396;2023-05-10T03:39:13;5.72;;;2.83;;
73296;SDS011;61524;50.938;11.396;2023-05-10T03:41:38;8.75;;;2.95;;
73296;SDS011;61524;50.938;11.396;2023-05-10T03:44:04;5.05;;;2.95;;
73296;SDS011;61524;50.938;11.396;2023-05-10T03:46:29;4.40;;;2.72;;
73296;SDS011;61524;50.938;11.396;2023-05-10T03:48:55;5.18;;;3.00;;
73296;SDS011;61524;50.938;11.396;2023-05-10T03:51:20;4.88;;;3.00;;
73296;SDS011;61524;50.938;11.396;2023-05-10T03:53:46;4.95;;;3.22;;
73296;SDS011;61524;50.938;11.396;2023-05-10T03:56:11;5.30;;;2.45;;
73296;SDS011;61524;50.938;11.396;2023-05-10T03:58:37;3.92;;;2.10;;
73296;SDS011;61524;50.938;11.396;2023-05-10T04:01:02;4.18;;;2.70;;
73296;SDS011;61524;50.938;11.396;2023-05-10T04:03:28;6.50;;;2.78;;
73296;SDS011;61524;50.938;11.396;2023-05-10T04:06:02;4.47;;;2.28;;
73296;SDS011;61524;50.938;11.396;2023-05-10T04:08:28;4.55;;;2.75;;
73296;SDS011;61524;50.938;11.396;2023-05-10T04:10:54;5.13;;;2.75;;
73296;SDS011;61524;50.938;11.396;2023-05-10T04:13:19;6.50;;;2.95;;
73296;SDS011;61524;50.938;11.396;2023-05-10T04:15:45;4.97;;;3.00;;
73296;SDS011;61524;50.938;11.396;2023-05-10T04:18:10;5.32;;;2.92;;
73296;SDS011;61524;50.938;11.396;2023-05-10T04:20:36;6.07;;;3.22;;
73296;SDS011;61524;50.938;11.396;2023-05-10T04:23:02;5.00;;;3.00;;
73296;SDS011;61524;50.938;11.396;2023-05-10T04:25:27;4.75;;;2.80;;
73296;SDS011;61524;50.938;11.396;2023-05-10T04:27:52;5.55;;;2.78;;
73296;SDS011;61524;50.938;11.396;2023-05-10T04:30:18;5.43;;;3.10;;
73296;SDS011;61524;50.938;11.396;2023-05-10T04:32:43;4.63;;;2.47;;
73296;SDS011;61524;50.938;11.396;2023-05-10T04:35:09;6.32;;;3.03;;
73296;SDS011;61524;50.938;11.396;2023-05-10T04:37:35;4.78;;;3.15;;
73296;SDS011;61524;50.938;11.396;2023-05-10T04:40:01;5.57;;;2.88;;
73296;SDS011;61524;50.938;11.396;2023-05-10T04:42:28;5.50;;;3.40;;
73296;SDS011;61524;50.938;11.396;2023-05-10T04:44:53;5.55;;;3.33;;
73296;SDS011;61524;50.938;11.396;2023-05-10T04:47:19;5.50;;;3.42;;
73296;SDS011;61524;50.938;11.396;2023-05-10T04:49:44;5.43;;;3.17;;
73296;SDS011;61524;50.938;11.396;2023-05-10T04:52:10;7.13;;;3.20;;
73296;SDS011;61524;50.938;11.396;2023-05-10T04:54:36;4.72;;;2.88;;
73296;SDS011;61524;50.938;11.396;2023-05-10T04:57:02;6.03;;;2.60;;
73296;SDS011;61524;50.938;11.396;2023-05-10T04:59:27;5.00;;;2.63;;
73296;SDS011;61524;50.938;11.396;2023-05-10T05:01:53;5.10;;;2.88;;
73296;SDS011;61524;50.938;11.396;2023-05-10T05:04:18;5.40;;;2.92;;
73296;SDS011;61524;50.938;11.396;2023-05-10T05:06:43;5.70;;;2.70;;
73296;SDS011;61524;50.938;11.396;2023-05-10T05:09:09;5.68;;;2.80;;
73296;SDS011;61524;50.938;11.396;2023-05-10T05:11:35;5.80;;;3.13;;
73296;SDS011;61524;50.938;11.396;2023-05-10T05:14:00;8.30;;;3.45;;
73296;SDS011;61524;50.938;11.396;2023-05-10T05:16:26;5.32;;;3.40;;
73296;SDS011;61524;50.938;11.396;2023-05-10T05:18:51;5.15;;;3.08;;
73296;SDS011;61524;50.938;11.396;2023-05-10T05:21:17;5.18;;;3.30;;
73296;SDS011;61524;50.938;11.396;2023-05-10T05:23:43;5.88;;;3.15;;
73296;SDS011;61524;50.938;11.396;2023-05-10T05:26:09;5.35;;;3.25;;
73296;SDS011;61524;50.938;11.396;2023-05-10T05:28:35;6.30;;;3.53;;
73296;SDS011;61524;50.938;11.396;2023-05-10T05:31:05;6.45;;;3.83;;
73296;SDS011;61524;50.938;11.396;2023-05-10T05:33:32;5.60;;;3.35;;
73296;SDS011;61524;50.938;11.396;2023-05-10T05:36:02;5.03;;;3.35;;
73296;SDS011;61524;50.938;11.396;2023-05-10T05:38:28;4.75;;;2.83;;
73296;SDS011;61524;50.938;11.396;2023-05-10T05:40:53;6.40;;;3.50;;
73296;SDS011;61524;50.938;11.396;2023-05-10T05:43:19;9.45;;;3.88;;
73296;SDS011;61524;50.938;11.396;2023-05-10T05:45:44;5.28;;;3.30;;
73296;SDS011;61524;50.938;11.396;2023-05-10T05:48:10;6.05;;;3.17;;
73296;SDS011;61524;50.938;11.396;2023-05-10T05:50:35;6.90;;;4.05;;
73296;SDS011;61524;50.938;11.396;2023-05-10T05:53:01;5.45;;;3.10;;
73296;SDS011;61524;50.938;11.396;2023-05-10T05:55:27;5.30;;;3.20;;
73296;SDS011;61524;50.938;11.396;2023-05-10T05:57:52;5.65;;;3.40;;
73296;SDS011;61524;50.938;11.396;2023-05-10T06:00:18;5.97;;;3.33;;
73296;SDS011;61524;50.938;11.396;2023-05-10T06:02:44;5.72;;;3.33;;
73296;SDS011;61524;50.938;11.396;2023-05-10T06:05:09;6.70;;;3.50;;
73296;SDS011;61524;50.938;11.396;2023-05-10T06:07:35;8.38;;;3.88;;
73296;SDS011;61524;50.938;11.396;2023-05-10T06:10:00;8.55;;;3.60;;
73296;SDS011;61524;50.938;11.396;2023-05-10T06:12:26;5.05;;;3.17;;
73296;SDS011;61524;50.938;11.396;2023-05-10T06:14:51;6.20;;;3.58;;
73296;SDS011;61524;50.938;11.396;2023-05-10T06:17:17;5.93;;;3.75;;
73296;SDS011;61524;50.938;11.396;2023-05-10T06:19:43;4.90;;;3.50;;
73296;SDS011;61524;50.938;11.396;2023-05-10T06:22:08;6.35;;;3.88;;
73296;SDS011;61524;50.938;11.396;2023-05-10T06:24:33;5.68;;;3.65;;
73296;SDS011;61524;50.938;11.396;2023-05-10T06:26:59;6.63;;;3.63;;
73296;SDS011;61524;50.938;11.396;2023-05-10T06:29:25;6.20;;;3.60;;
73296;SDS011;61524;50.938;11.396;2023-05-10T06:31:51;5.10;;;3.50;;
73296;SDS011;61524;50.938;11.396;2023-05-10T06:34:16;5.85;;;3.63;;
73296;SDS011;61524;50.938;11.396;2023-05-10T06:36:42;7.57;;;4.05;;
73296;SDS011;61524;50.938;11.396;2023-05-10T06:39:07;6.38;;;4.07;;
73296;SDS011;61524;50.938;11.396;2023-05-10T06:41:33;5.93;;;3.80;;
73296;SDS011;61524;50.938;11.396;2023-05-10T06:43:58;5.88;;;3.83;;
73296;SDS011;61524;50.938;11.396;2023-05-10T06:46:23;7.13;;;4.45;;
73296;SDS011;61524;50.938;11.396;2023-05-10T06:48:49;6.35;;;4.20;;
73296;SDS011;61524;50.938;11.396;2023-05-10T06:51:14;6.72;;;4.18;;
73296;SDS011;61524;50.938;11.396;2023-05-10T06:53:40;5.22;;;3.53;;
73296;SDS011;61524;50.938;11.396;2023-05-10T06:56:05;5.85;;;4.00;;
73296;SDS011;61524;50.938;11.396;2023-05-10T06:58:31;7.95;;;4.10;;
73296;SDS011;61524;50.938;11.396;2023-05-10T07:01:04;5.20;;;3.45;;
73296;SDS011;61524;50.938;11.396;2023-05-10T07:03:30;7.15;;;3.92;;
73296;SDS011;61524;50.938;11.396;2023-05-10T07:06:02;6.70;;;4.43;;
73296;SDS011;61524;50.938;11.396;2023-05-10T07:08:32;6.97;;;4.03;;
73296;SDS011;61524;50.938;11.396;2023-05-10T07:11:01;6.18;;;4.05;;
73296;SDS011;61524;50.938;11.396;2023-05-10T07:13:28;7.38;;;4.40;;
73296;SDS011;61524;50.938;11.396;2023-05-10T07:15:54;5.80;;;3.75;;
73296;SDS011;61524;50.938;11.396;2023-05-10T07:18:19;10.88;;;3.92;;
73296;SDS011;61524;50.938;11.396;2023-05-10T07:20:45;5.93;;;4.05;;
73296;SDS011;61524;50.938;11.396;2023-05-10T07:23:10;7.85;;;4.47;;
73296;SDS011;61524;50.938;11.396;2023-05-10T07:25:35;7.85;;;4.22;;
73296;SDS011;61524;50.938;11.396;2023-05-10T07:28:01;6.03;;;3.88;;
73296;SDS011;61524;50.938;11.396;2023-05-10T07:30:26;5.63;;;3.80;;
73296;SDS011;61524;50.938;11.396;2023-05-10T07:32:52;5.95;;;3.97;;
73296;SDS011;61524;50.938;11.396;2023-05-10T07:35:17;6.10;;;4.10;;
73296;SDS011;61524;50.938;11.396;2023-05-10T07:37:43;7.28;;;3.25;;
73296;SDS011;61524;50.938;11.396;2023-05-10T07:40:08;6.18;;;4.50;;
73296;SDS011;61524;50.938;11.396;2023-05-10T07:42:34;8.43;;;3.72;;
73296;SDS011;61524;50.938;11.396;2023-05-10T07:44:59;6.20;;;3.83;;
73296;SDS011;61524;50.938;11.396;2023-05-10T07:47:25;5.28;;;3.28;;
73296;SDS011;61524;50.938;11.396;2023-05-10T07:49:50;7.28;;;3.70;;
73296;SDS011;61524;50.938;11.396;2023-05-10T07:52:16;6.95;;;4.03;;
73296;SDS011;61524;50.938;11.396;2023-05-10T07:54:41;5.85;;;3.97;;
73296;SDS011;61524;50.938;11.396;2023-05-10T07:57:07;6.95;;;3.97;;
73296;SDS011;61524;50.938;11.396;2023-05-10T07:59:32;5.80;;;3.83;;
73296;SDS011;61524;50.938;11.396;2023-05-10T08:01:58;5.25;;;3.83;;
73296;SDS011;61524;50.938;11.396;2023-05-10T08:04:23;5.32;;;3.55;;
73296;SDS011;61524;50.938;11.396;2023-05-10T08:06:49;6.75;;;4.55;;
73296;SDS011;61524;50.938;11.396;2023-05-10T08:09:14;5.63;;;2.70;;
73296;SDS011;61524;50.938;11.396;2023-05-10T08:11:41;5.60;;;3.55;;
73296;SDS011;61524;50.938;11.396;2023-05-10T08:14:06;5.60;;;3.92;;
73296;SDS011;61524;50.938;11.396;2023-05-10T08:16:32;5.38;;;3.70;;
73296;SDS011;61524;50.938;11.396;2023-05-10T08:18:57;6.75;;;3.28;;
73296;SDS011;61524;50.938;11.396;2023-05-10T08:21:22;5.95;;;3.45;;
73296;SDS011;61524;50.938;11.396;2023-05-10T08:23:48;9.88;;;3.97;;
73296;SDS011;61524;50.938;11.396;2023-05-10T08:26:14;6.40;;;3.40;;
73296;SDS011;61524;50.938;11.396;2023-05-10T08:28:39;5.57;;;3.90;;
73296;SDS011;61524;50.938;11.396;2023-05-10T08:31:05;5.53;;;3.15;;
73296;SDS011;61524;50.938;11.396;2023-05-10T08:33:30;6.88;;;3.15;;
73296;SDS011;61524;50.938;11.396;2023-05-10T08:35:56;5.07;;;3.92;;
73296;SDS011;61524;50.938;11.396;2023-05-10T08:38:21;4.70;;;3.20;;
73296;SDS011;61524;50.938;11.396;2023-05-10T08:40:47;4.78;;;3.30;;
73296;SDS011;61524;50.938;11.396;2023-05-10T08:43:15;4.32;;;2.50;;
73296;SDS011;61524;50.938;11.396;2023-05-10T08:45:42;5.05;;;3.55;;
73296;SDS011;61524;50.938;11.396;2023-05-10T08:48:10;6.07;;;3.75;;
73296;SDS011;61524;50.938;11.396;2023-05-10T08:50:39;4.80;;;3.10;;
73296;SDS011;61524;50.938;11.396;2023-05-10T08:53:06;4.95;;;3.10;;
73296;SDS011;61524;50.938;11.396;2023-05-10T08:55:34;4.38;;;3.03;;
73296;SDS011;61524;50.938;11.396;2023-05-10T08:58:02;5.35;;;3.03;;
73296;SDS011;61524;50.938;11.396;2023-05-10T09:00:28;5.60;;;3.50;;
73296;SDS011;61524;50.938;11.396;2023-05-10T09:02:54;6.97;;;3.38;;
73296;SDS011;61524;50.938;11.396;2023-05-10T09:05:21;5.68;;;3.28;;
73296;SDS011;61524;50.938;11.396;2023-05-10T09:07:47;5.13;;;3.15;;
73296;SDS011;61524;50.938;11.396;2023-05-10T09:10:13;5.93;;;3.55;;
73296;SDS011;61524;50.938;11.396;2023-05-10T09:12:40;7.43;;;3.95;;
73296;SDS011;61524;50.938;11.396;2023-05-10T09:15:06;4.97;;;3.30;;
73296;SDS011;61524;50.938;11.396;2023-05-10T09:17:32;4.93;;;3.00;;
73296;SDS011;61524;50.938;11.396;2023-05-10T09:19:59;4.82;;;2.83;;
73296;SDS011;61524;50.938;11.396;2023-05-10T09:22:25;5.35;;;3.10;;
73296;SDS011;61524;50.938;11.396;2023-05-10T09:25:09;5.00;;;3.17;;
73296;SDS011;61524;50.938;11.396;2023-05-10T09:27:36;4.82;;;3.28;;
73296;SDS011;61524;50.938;11.396;2023-05-10T09:30:04;5.80;;;3.10;;
73296;SDS011;61524;50.938;11.396;2023-05-10T09:32:39;4.70;;;3.30;;
73296;SDS011;61524;50.938;11.396;2023-05-10T09:35:11;4.45;;;2.50;;
73296;SDS011;61524;50.938;11.396;2023-05-10T09:37:42;4.30;;;2.72;;
73296;SDS011;61524;50.938;11.396;2023-05-10T09:40:12;4.78;;;2.97;;
73296;SDS011;61524;50.938;11.396;2023-05-10T09:42:43;4.90;;;2.50;;
73296;SDS011;61524;50.938;11.396;2023-05-10T09:45:19;4.60;;;2.63;;
73296;SDS011;61524;50.938;11.396;2023-05-10T09:47:45;4.45;;;3.15;;
73296;SDS011;61524;50.938;11.396;2023-05-10T09:50:11;4.55;;;2.70;;
73296;SDS011;61524;50.938;11.396;2023-05-10T09:53:19;4.30;;;2.38;;
73296;SDS011;61524;50.938;11.396;2023-05-10T09:58:05;3.20;;;1.83;;
73296;SDS011;61524;50.938;11.396;2023-05-10T10:00:38;5.15;;;1.63;;
73296;SDS011;61524;50.938;11.396;2023-05-10T10:03:05;2.78;;;1.33;;
73296;SDS011;61524;50.938;11.396;2023-05-10T10:05:34;3.80;;;1.38;;
73296;SDS011;61524;50.938;11.396;2023-05-10T10:08:04;3.35;;;0.85;;
73296;SDS011;61524;50.938;11.396;2023-05-10T10:10:30;1.63;;;0.93;;
73296;SDS011;61524;50.938;11.396;2023-05-10T10:12:57;1.50;;;0.85;;
73296;SDS011;61524;50.938;11.396;2023-05-10T10:15:22;2.83;;;1.10;;
73296;SDS011;61524;50.938;11.396;2023-05-10T10:17:49;1.98;;;0.90;;
73296;SDS011;61524;50.938;11.396;2023-05-10T10:20:16;1.80;;;1.02;;
73296;SDS011;61524;50.938;11.396;2023-05-10T10:22:43;1.00;;;0.57;;
73296;SDS011;61524;50.938;11.396;2023-05-10T10:25:10;1.70;;;0.98;;
73296;SDS011;61524;50.938;11.396;2023-05-10T10:35:32;0.73;;;0.60;;
73296;SDS011;61524;50.938;11.396;2023-05-10T10:40:28;1.13;;;0.85;;
73296;SDS011;61524;50.938;11.396;2023-05-10T10:42:55;1.63;;;1.05;;
73296;SDS011;61524;50.938;11.396;2023-05-10T10:45:22;0.82;;;0.70;;
73296;SDS011;61524;50.938;11.396;2023-05-10T10:47:48;1.38;;;0.60;;
73296;SDS011;61524;50.938;11.396;2023-05-10T10:50:18;0.95;;;0.50;;
73296;SDS011;61524;50.938;11.396;2023-05-10T10:52:45;1.20;;;0.70;;
73296;SDS011;61524;50.938;11.396;2023-05-10T11:02:46;0.95;;;0.70;;
73296;SDS011;61524;50.938;11.396;2023-05-10T11:07:54;1.30;;;0.70;;
73296;SDS011;61524;50.938;11.396;2023-05-10T11:10:22;2.22;;;1.05;;
73296;SDS011;61524;50.938;11.396;2023-05-10T11:16:14;1.17;;;0.73;;
73296;SDS011;61524;50.938;11.396;2023-05-10T11:19:07;1.05;;;0.80;;
73296;SDS011;61524;50.938;11.396;2023-05-10T11:21:34;1.55;;;0.90;;
73296;SDS011;61524;50.938;11.396;2023-05-10T11:24:14;1.13;;;0.80;;
73296;SDS011;61524;50.938;11.396;2023-05-10T11:26:42;1.15;;;0.75;;
73296;SDS011;61524;50.938;11.396;2023-05-10T11:29:07;2.83;;;0.95;;
73296;SDS011;61524;50.938;11.396;2023-05-10T11:31:33;1.88;;;0.98;;
73296;SDS011;61524;50.938;11.396;2023-05-10T11:33:59;1.00;;;0.60;;
73296;SDS011;61524;50.938;11.396;2023-05-10T11:36:32;2.55;;;0.93;;
73296;SDS011;61524;50.938;11.396;2023-05-10T11:38:59;2.55;;;1.10;;
73296;SDS011;61524;50.938;11.396;2023-05-10T11:41:24;1.33;;;0.90;;
73296;SDS011;61524;50.938;11.396;2023-05-10T11:43:55;1.00;;;0.75;;
73296;SDS011;61524;50.938;11.396;2023-05-10T11:46:22;1.80;;;1.00;;
73296;SDS011;61524;50.938;11.396;2023-05-10T11:48:52;0.75;;;0.70;;
73296;SDS011;61524;50.938;11.396;2023-05-10T11:51:20;1.48;;;0.63;;
73296;SDS011;61524;50.938;11.396;2023-05-10T11:53:50;1.05;;;0.80;;
73296;SDS011;61524;50.938;11.396;2023-05-10T11:56:19;1.25;;;0.90;;
73296;SDS011;61524;50.938;11.396;2023-05-10T11:58:51;1.40;;;0.73;;
73296;SDS011;61524;50.938;11.396;2023-05-10T12:01:18;4.13;;;0.90;;
73296;SDS011;61524;50.938;11.396;2023-05-10T12:03:43;0.80;;;0.70;;
73296;SDS011;61524;50.938;11.396;2023-05-10T12:06:09;0.90;;;0.70;;
73296;SDS011;61524;50.938;11.396;2023-05-10T12:08:35;1.50;;;0.70;;
73296;SDS011;61524;50.938;11.396;2023-05-10T12:11:04;0.70;;;0.68;;
73296;SDS011;61524;50.938;11.396;2023-05-10T12:13:38;1.13;;;0.70;;
73296;SDS011;61524;50.938;11.396;2023-05-10T12:16:18;1.92;;;1.00;;
73296;SDS011;61524;50.938;11.396;2023-05-10T12:18:49;3.50;;;0.90;;
73296;SDS011;61524;50.938;11.396;2023-05-10T12:21:18;2.20;;;1.00;;
73296;SDS011;61524;50.938;11.396;2023-05-10T12:23:45;2.47;;;0.90;;
73296;SDS011;61524;50.938;11.396;2023-05-10T12:26:12;1.00;;;0.70;;
73296;SDS011;61524;50.938;11.396;2023-05-10T12:28:38;1.35;;;0.75;;
73296;SDS011;61524;50.938;11.396;2023-05-10T12:31:06;0.80;;;0.70;;
73296;SDS011;61524;50.938;11.396;2023-05-10T12:33:36;1.45;;;0.95;;
73296;SDS011;61524;50.938;11.396;2023-05-10T12:36:04;1.20;;;0.80;;
73296;SDS011;61524;50.938;11.396;2023-05-10T12:38:34;1.25;;;0.70;;
73296;SDS011;61524;50.938;11.396;2023-05-10T12:41:06;1.52;;;0.93;;
73296;SDS011;61524;50.938;11.396;2023-05-10T12:43:33;1.40;;;0.70;;
73296;SDS011;61524;50.938;11.396;2023-05-10T12:48:35;2.25;;;0.90;;
73296;SDS011;61524;50.938;11.396;2023-05-10T12:51:01;2.10;;;1.13;;
73296;SDS011;61524;50.938;11.396;2023-05-10T12:53:28;1.55;;;0.90;;
73296;SDS011;61524;50.938;11.396;2023-05-10T12:55:53;2.25;;;0.90;;
73296;SDS011;61524;50.938;11.396;2023-05-10T12:58:19;1.25;;;0.80;;
73296;SDS011;61524;50.938;11.396;2023-05-10T13:00:45;1.65;;;1.00;;
73296;SDS011;61524;50.938;11.396;2023-05-10T13:03:10;1.92;;;0.85;;
73296;SDS011;61524;50.938;11.396;2023-05-10T13:05:36;1.48;;;0.80;;
73296;SDS011;61524;50.938;11.396;2023-05-10T13:08:01;1.63;;;1.00;;
73296;SDS011;61524;50.938;11.396;2023-05-10T13:10:28;1.48;;;1.00;;
73296;SDS011;61524;50.938;11.396;2023-05-10T13:12:54;1.40;;;0.80;;
73296;SDS011;61524;50.938;11.396;2023-05-10T13:15:20;1.75;;;1.05;;
73296;SDS011;61524;50.938;11.396;2023-05-10T13:17:45;2.45;;;1.25;;
73296;SDS011;61524;50.938;11.396;2023-05-10T13:20:11;1.38;;;0.88;;
73296;SDS011;61524;50.938;11.396;2023-05-10T13:22:36;1.42;;;0.70;;
73296;SDS011;61524;50.938;11.396;2023-05-10T13:25:02;1.45;;;0.85;;
73296;SDS011;61524;50.938;11.396;2023-05-10T13:27:27;2.70;;;1.08;;
73296;SDS011;61524;50.938;11.396;2023-05-10T13:29:53;1.67;;;0.88;;
73296;SDS011;61524;50.938;11.396;2023-05-10T13:32:20;1.55;;;0.90;;
73296;SDS011;61524;50.938;11.396;2023-05-10T13:34:45;1.95;;;1.13;;
73296;SDS011;61524;50.938;11.396;2023-05-10T13:37:11;1.38;;;0.75;;
73296;SDS011;61524;50.938;11.396;2023-05-10T13:39:36;2.58;;;0.90;;
73296;SDS011;61524;50.938;11.396;2023-05-10T13:42:02;1.00;;;0.70;;
73296;SDS011;61524;50.938;11.396;2023-05-10T13:44:28;1.02;;;0.70;;
73296;SDS011;61524;50.938;11.396;2023-05-10T13:46:54;1.27;;;0.90;;
73296;SDS011;61524;50.938;11.396;2023-05-10T13:49:20;1.73;;;0.85;;
73296;SDS011;61524;50.938;11.396;2023-05-10T13:51:46;1.58;;;1.00;;
73296;SDS011;61524;50.938;11.396;2023-05-10T13:54:11;2.00;;;0.70;;
73296;SDS011;61524;50.938;11.396;2023-05-10T13:56:37;2.13;;;0.88;;
73296;SDS011;61524;50.938;11.396;2023-05-10T13:59:02;1.90;;;0.70;;
73296;SDS011;61524;50.938;11.396;2023-05-10T14:01:28;1.65;;;0.88;;
73296;SDS011;61524;50.938;11.396;2023-05-10T14:03:53;1.60;;;0.85;;
73296;SDS011;61524;50.938;11.396;2023-05-10T14:06:19;1.40;;;0.80;;
73296;SDS011;61524;50.938;11.396;2023-05-10T14:08:44;1.38;;;0.80;;
73296;SDS011;61524;50.938;11.396;2023-05-10T14:11:10;1.27;;;0.75;;
73296;SDS011;61524;50.938;11.396;2023-05-10T14:13:36;1.10;;;0.70;;
73296;SDS011;61524;50.938;11.396;2023-05-10T14:16:02;1.08;;;0.70;;
73296;SDS011;61524;50.938;11.396;2023-05-10T14:18:27;1.50;;;0.90;;
73296;SDS011;61524;50.938;11.396;2023-05-10T14:20:53;1.20;;;0.70;;
73296;SDS011;61524;50.938;11.396;2023-05-10T14:23:19;1.23;;;0.70;;
73296;SDS011;61524;50.938;11.396;2023-05-10T14:25:48;1.85;;;0.75;;
73296;SDS011;61524;50.938;11.396;2023-05-10T14:28:14;1.63;;;0.98;;
73296;SDS011;61524;50.938;11.396;2023-05-10T14:30:40;2.20;;;0.77;;
73296;SDS011;61524;50.938;11.396;2023-05-10T14:33:06;1.33;;;0.90;;
73296;SDS011;61524;50.938;11.396;2023-05-10T14:35:32;1.95;;;0.90;;
73296;SDS011;61524;50.938;11.396;2023-05-10T14:37:58;1.60;;;0.90;;
73296;SDS011;61524;50.938;11.396;2023-05-10T14:40:23;2.90;;;1.02;;
73296;SDS011;61524;50.938;11.396;2023-05-10T14:42:49;2.63;;;1.05;;
73296;SDS011;61524;50.938;11.396;2023-05-10T14:45:15;1.40;;;0.85;;
73296;SDS011;61524;50.938;11.396;2023-05-10T14:47:41;1.67;;;0.90;;
73296;SDS011;61524;50.938;11.396;2023-05-10T14:50:06;2.22;;;0.88;;
73296;SDS011;61524;50.938;11.396;2023-05-10T14:52:32;1.00;;;0.70;;
73296;SDS011;61524;50.938;11.396;2023-05-10T14:54:58;0.57;;;0.43;;
73296;SDS011;61524;50.938;11.396;2023-05-10T14:57:25;1.08;;;0.60;;
73296;SDS011;61524;50.938;11.396;2023-05-10T14:59:50;1.67;;;0.73;;
73296;SDS011;61524;50.938;11.396;2023-05-10T15:02:16;0.50;;;0.50;;
73296;SDS011;61524;50.938;11.396;2023-05-10T15:04:41;2.67;;;0.90;;
73296;SDS011;61524;50.938;11.396;2023-05-10T15:07:07;2.13;;;0.70;;
73296;SDS011;61524;50.938;11.396;2023-05-10T15:09:32;1.52;;;0.80;;
73296;SDS011;61524;50.938;11.396;2023-05-10T15:11:57;1.00;;;0.70;;
73296;SDS011;61524;50.938;11.396;2023-05-10T15:14:23;1.70;;;0.75;;
73296;SDS011;61524;50.938;11.396;2023-05-10T15:16:49;2.47;;;1.00;;